createdAt,value
2022-11-15T00:02:08.796Z,18.10
2022-11-15T00:04:29.276Z,16.40
2022-11-15T00:06:50.079Z,17.57
2022-11-15T00:09:10.881Z,17.33
2022-11-15T00:11:32.036Z,18.37
2022-11-15T00:13:55.891Z,17.70
2022-11-15T00:16:16.788Z,19.17
2022-11-15T00:18:38.513Z,18.03
2022-11-15T00:21:06.122Z,18.00
2022-11-15T00:23:26.718Z,17.27
2022-11-15T00:26:00.465Z,18.30
2022-11-15T00:28:21.109Z,18.87
2022-11-15T00:30:44.097Z,19.97
2022-11-15T00:33:06.330Z,17.83
2022-11-15T00:35:28.352Z,21.03
2022-11-15T00:37:49.599Z,20.53
2022-11-15T00:40:11.133Z,22.33
2022-11-15T00:42:31.573Z,20.17
2022-11-15T00:44:52.296Z,20.27
2022-11-15T00:47:12.771Z,23.20
2022-11-15T00:49:34.092Z,24.27
2022-11-15T00:51:54.747Z,23.87
2022-11-15T00:54:15.506Z,23.87
2022-11-15T00:56:35.873Z,23.40
2022-11-15T00:58:56.119Z,22.33
2022-11-15T01:01:16.596Z,19.93
2022-11-15T01:03:39.007Z,20.83
2022-11-15T01:06:01.297Z,21.40
2022-11-15T01:08:21.908Z,19.87
2022-11-15T01:10:43.743Z,21.83
2022-11-15T01:13:04.370Z,21.37
2022-11-15T01:15:24.642Z,23.37
2022-11-15T01:17:45.178Z,20.00
2022-11-15T01:21:09.647Z,16.50
2022-11-15T01:23:30.358Z,16.30
2022-11-15T01:25:51.098Z,15.53
2022-11-15T01:28:12.016Z,13.93
2022-11-15T01:30:33.052Z,13.50
2022-11-15T01:32:53.254Z,14.27
2022-11-15T01:35:14.109Z,13.03
2022-11-15T01:37:34.738Z,13.27
2022-11-15T01:39:55.305Z,12.33
2022-11-15T01:42:16.126Z,13.13
2022-11-15T01:44:44.306Z,11.13
2022-11-15T01:47:10.237Z,10.70
2022-11-15T01:49:34.839Z,11.10
2022-11-15T01:51:56.246Z,12.47
2022-11-15T01:58:11.397Z,13.10
2022-11-15T02:00:33.044Z,16.20
2022-11-15T02:02:54.424Z,12.43
2022-11-15T02:05:15.058Z,16.10
2022-11-15T02:07:37.305Z,15.43
2022-11-15T02:10:03.947Z,15.77
2022-11-15T02:12:24.822Z,14.93
2022-11-15T02:14:49.451Z,16.63
2022-11-15T02:17:26.058Z,17.93
2022-11-15T02:19:52.445Z,15.13
2022-11-15T02:22:21.865Z,14.60
2022-11-15T02:25:02.628Z,15.87
2022-11-15T02:27:53.339Z,15.27
2022-11-15T02:30:27.342Z,17.53
2022-11-15T02:32:54.188Z,14.17
2022-11-15T02:35:53.305Z,14.90
2022-11-15T02:38:31.827Z,14.37
2022-11-15T02:41:03.556Z,14.73
2022-11-15T02:43:51.232Z,16.33
2022-11-15T02:46:59.599Z,14.00
2022-11-15T02:49:20.888Z,17.00
2022-11-15T02:51:42.973Z,16.27
2022-11-15T02:54:03.689Z,13.97
2022-11-15T02:56:26.765Z,12.60
2022-11-15T02:59:13.351Z,13.13
2022-11-15T03:01:57.183Z,12.50
2022-11-15T03:04:24.838Z,18.00
2022-11-15T03:06:55.061Z,14.73
2022-11-15T03:09:44.140Z,13.43
2022-11-15T03:12:12.996Z,10.80
2022-11-15T03:14:38.430Z,13.27
2022-11-15T03:17:04.852Z,12.30
2022-11-15T03:19:35.330Z,13.17
2022-11-15T03:21:59.175Z,14.97
2022-11-15T03:24:46.603Z,10.93
2022-11-15T03:27:11.267Z,13.07
2022-11-15T03:29:39.177Z,12.17
2022-11-15T03:32:06.373Z,10.93
2022-11-15T03:34:39.257Z,12.90
2022-11-15T03:37:00.317Z,10.97
2022-11-15T03:39:22.741Z,14.00
2022-11-15T03:41:52.518Z,12.97
2022-11-15T03:44:24.594Z,14.63
2022-11-15T03:46:55.976Z,16.73
2022-11-15T03:49:23.824Z,17.67
2022-11-15T03:51:45.021Z,16.00
2022-11-15T03:54:09.136Z,14.67
2022-11-15T03:56:29.845Z,17.03
2022-11-15T03:58:50.672Z,16.03
2022-11-15T04:01:10.840Z,16.87
2022-11-15T04:03:31.770Z,18.57
2022-11-15T04:05:52.567Z,18.47
2022-11-15T04:08:13.385Z,17.50
2022-11-15T04:10:33.921Z,21.17
2022-11-15T04:12:54.883Z,19.17
2022-11-15T04:15:18.823Z,17.07
2022-11-15T04:17:44.405Z,17.73
2022-11-15T04:20:25.441Z,17.23
2022-11-15T04:23:04.805Z,16.40
2022-11-15T04:25:31.079Z,15.30
2022-11-15T04:27:52.645Z,14.90
2022-11-15T04:30:13.286Z,16.13
2022-11-15T04:32:33.993Z,16.37
2022-11-15T04:34:54.096Z,20.10
2022-11-15T04:37:16.419Z,18.60
2022-11-15T04:39:37.201Z,20.47
2022-11-15T04:41:57.961Z,18.17
2022-11-15T04:44:18.702Z,16.20
2022-11-15T04:46:39.426Z,15.23
2022-11-15T04:49:00.109Z,15.10
2022-11-15T04:51:20.967Z,15.03
2022-11-15T04:54:07.771Z,15.13
2022-11-15T04:56:32.307Z,14.83
2022-11-15T04:58:54.160Z,15.43
2022-11-15T05:01:16.204Z,17.73
2022-11-15T05:03:55.306Z,17.93
2022-11-15T05:06:16.210Z,20.03
2022-11-15T05:08:39.733Z,20.30
2022-11-15T05:11:00.546Z,21.40
2022-11-15T05:13:21.409Z,21.23
2022-11-15T05:15:42.182Z,18.23
2022-11-15T05:18:04.461Z,20.23
2022-11-15T05:20:25.635Z,26.80
2022-11-15T05:22:46.254Z,30.90
2022-11-15T05:25:07.762Z,27.33
2022-11-15T05:27:28.236Z,23.20
2022-11-15T05:29:49.027Z,22.17
2022-11-15T05:32:11.463Z,17.70
2022-11-15T05:34:32.405Z,18.13
2022-11-15T05:36:53.090Z,18.67
2022-11-15T05:39:21.664Z,21.10
2022-11-15T05:41:56.915Z,44.43
2022-11-15T05:44:21.283Z,22.60
2022-11-15T05:46:43.328Z,25.60
2022-11-15T05:49:07.613Z,21.13
2022-11-15T05:51:30.368Z,19.63
2022-11-15T05:53:53.289Z,20.73
2022-11-15T05:56:14.169Z,23.30
2022-11-15T05:58:38.193Z,26.03
2022-11-15T06:00:59.092Z,28.27
2022-11-15T06:03:26.242Z,28.70
2022-11-15T06:05:46.912Z,38.53
2022-11-15T06:08:07.804Z,35.60
2022-11-15T06:10:28.421Z,38.50
2022-11-15T06:13:04.405Z,31.07
2022-11-15T06:15:24.869Z,30.93
2022-11-15T06:17:45.352Z,37.27
2022-11-15T06:20:06.285Z,38.97
2022-11-15T06:22:26.701Z,52.47
2022-11-15T06:24:47.870Z,45.30
2022-11-15T06:27:08.306Z,39.43
2022-11-15T06:29:29.105Z,33.00
2022-11-15T06:31:49.966Z,31.47
2022-11-15T06:34:10.660Z,29.57
2022-11-15T06:36:31.035Z,30.47
2022-11-15T06:38:54.157Z,26.87
2022-11-15T06:45:02.411Z,29.07
2022-11-15T06:47:23.065Z,30.63
2022-11-15T06:49:44.015Z,24.47
2022-11-15T06:52:04.915Z,28.20
2022-11-15T06:54:26.466Z,29.10
2022-11-15T06:56:47.116Z,24.43
2022-11-15T06:59:07.531Z,26.60
2022-11-15T07:01:28.081Z,24.07
2022-11-15T07:03:51.630Z,23.03
2022-11-15T07:06:12.344Z,22.20
2022-11-15T07:08:33.120Z,21.67
2022-11-15T07:10:54.054Z,21.43
2022-11-15T07:13:14.758Z,23.33
2022-11-15T07:15:35.177Z,24.20
2022-11-15T07:17:55.741Z,25.20
2022-11-15T07:20:19.927Z,27.30
2022-11-15T07:22:43.947Z,24.47
2022-11-15T07:25:04.955Z,27.10
2022-11-15T07:27:25.822Z,28.67
2022-11-15T07:29:46.616Z,22.83
2022-11-15T07:32:07.393Z,19.00
2022-11-15T07:34:27.758Z,16.37
2022-11-15T07:36:48.134Z,18.93
2022-11-15T07:39:09.379Z,17.67
2022-11-15T07:41:30.978Z,14.50
2022-11-15T07:43:54.397Z,13.53
2022-11-15T07:46:16.445Z,13.43
2022-11-15T07:48:44.086Z,14.87
2022-11-15T07:51:09.895Z,15.80
2022-11-15T07:53:34.252Z,18.30
2022-11-15T07:55:55.083Z,14.77
2022-11-15T07:58:16.098Z,18.30
2022-11-15T08:00:37.192Z,15.15
2022-11-15T08:03:24.221Z,18.08
2022-11-15T08:05:52.166Z,12.52
2022-11-15T08:08:13.061Z,15.82
2022-11-15T08:10:39.378Z,16.73
2022-11-15T08:13:04.056Z,19.80
2022-11-15T08:15:24.866Z,14.80
2022-11-15T08:17:45.431Z,15.30
2022-11-15T08:20:07.062Z,16.75
2022-11-15T08:22:27.675Z,19.75
2022-11-15T08:24:47.847Z,20.08
2022-11-15T08:27:16.163Z,18.48
2022-11-15T08:29:37.269Z,17.27
2022-11-15T08:31:58.282Z,16.65
2022-11-15T08:34:19.123Z,22.40
2022-11-15T08:36:46.005Z,19.42
2022-11-15T08:39:06.777Z,24.95
2022-11-15T08:41:36.985Z,21.17
2022-11-15T08:43:58.096Z,24.73
2022-11-15T08:46:19.483Z,24.23
2022-11-15T08:48:40.367Z,72.97
2022-11-15T08:51:01.047Z,40.30
2022-11-15T08:53:47.474Z,28.55
2022-11-15T08:56:10.239Z,31.58
2022-11-15T08:58:30.990Z,23.35
2022-11-15T09:00:51.882Z,20.40
2022-11-15T09:03:12.708Z,16.30
2022-11-15T09:05:36.659Z,15.15
2022-11-15T09:07:57.545Z,18.73
2022-11-15T09:10:18.076Z,13.50
2022-11-15T09:12:39.078Z,15.75
2022-11-15T09:14:59.889Z,11.25
2022-11-15T09:17:24.666Z,16.25
2022-11-15T09:20:10.380Z,26.02
2022-11-15T09:22:30.799Z,38.03
2022-11-15T09:24:51.477Z,32.45
2022-11-15T09:27:13.115Z,28.33
2022-11-15T09:29:33.665Z,21.27
2022-11-15T09:31:54.293Z,28.95
2022-11-15T09:34:14.938Z,25.10
2022-11-15T09:36:35.981Z,20.80
2022-11-15T09:38:59.227Z,16.13
2022-11-15T09:41:42.032Z,16.25
2022-11-15T09:44:44.962Z,37.00
2022-11-15T09:47:08.519Z,35.72
2022-11-15T09:49:31.054Z,26.20
2022-11-15T09:51:55.411Z,28.77
2022-11-15T09:54:51.741Z,30.35
2022-11-15T09:56:33.432Z,21.40
2022-11-15T09:59:03.971Z,20.50
2022-11-15T10:01:13.857Z,40.17
2022-11-15T10:03:43.081Z,33.63
2022-11-15T10:05:49.031Z,34.53
2022-11-15T10:08:08.054Z,37.65
2022-11-15T10:10:42.956Z,50.28
2022-11-15T10:12:49.266Z,54.17
2022-11-15T10:15:01.266Z,57.97
2022-11-15T10:17:40.639Z,66.80
2022-11-15T10:20:12.900Z,66.20
2022-11-15T10:22:20.726Z,41.17
2022-11-15T10:24:29.180Z,24.48
2022-11-15T10:26:31.363Z,45.80
2022-11-15T10:28:33.790Z,47.97
2022-11-15T10:30:42.486Z,38.03
2022-11-15T10:32:46.284Z,27.45
2022-11-15T10:34:50.192Z,25.23
2022-11-15T10:37:00.086Z,21.92
2022-11-15T10:39:02.141Z,17.75
2022-11-15T10:41:12.229Z,36.38
2022-11-15T10:43:16.206Z,44.20
2022-11-15T10:45:28.485Z,37.70
2022-11-15T10:47:39.009Z,42.10
2022-11-15T10:49:56.171Z,54.15
2022-11-15T10:52:16.183Z,61.88
2022-11-15T10:54:27.190Z,46.88
2022-11-15T10:56:29.627Z,43.83
2022-11-15T10:58:41.371Z,38.97
2022-11-15T11:00:43.820Z,62.42
2022-11-15T11:03:08.466Z,68.88
2022-11-15T11:05:42.151Z,77.88
2022-11-15T11:11:09.355Z,30.30
2022-11-15T11:13:30.168Z,28.42
2022-11-15T11:15:32.443Z,18.05
2022-11-15T11:17:46.379Z,16.95
2022-11-15T11:20:01.161Z,18.40
2022-11-15T11:22:42.960Z,18.02
2022-11-15T11:25:05.073Z,19.45
2022-11-15T11:27:34.207Z,14.98
2022-11-15T11:30:03.274Z,19.20
2022-11-15T11:32:38.848Z,17.33
2022-11-15T11:35:42.985Z,18.45
2022-11-15T11:37:52.546Z,15.00
2022-11-15T11:40:17.535Z,12.38
2022-11-15T11:43:02.685Z,11.40
2022-11-15T11:45:47.320Z,10.40
2022-11-15T11:48:09.145Z,11.20
2022-11-15T11:50:24.442Z,13.82
2022-11-15T11:52:28.538Z,11.25
2022-11-15T11:54:51.956Z,15.65
2022-11-15T11:56:55.534Z,11.20
2022-11-15T11:59:07.841Z,12.68
2022-11-15T12:01:21.807Z,11.65
2022-11-15T12:03:36.092Z,34.33
2022-11-15T12:05:56.657Z,50.20
2022-11-15T12:08:11.148Z,51.60
2022-11-15T12:10:23.648Z,55.95
2022-11-15T12:12:48.695Z,56.58
2022-11-15T12:14:57.581Z,37.70
2022-11-15T12:17:00.635Z,25.00
2022-11-15T12:19:06.289Z,23.10
2022-11-15T12:21:36.371Z,14.73
2022-11-15T12:23:53.030Z,11.75
2022-11-15T12:26:03.352Z,12.60
2022-11-15T12:28:36.457Z,12.23
2022-11-15T12:30:53.585Z,14.65
2022-11-15T12:33:02.959Z,13.23
2022-11-15T12:35:21.265Z,14.77
2022-11-15T12:37:45.130Z,15.57
2022-11-15T12:40:25.782Z,16.92
2022-11-15T12:43:08.211Z,17.98
2022-11-15T12:45:36.491Z,29.05
2022-11-15T12:47:38.626Z,31.20
2022-11-15T12:49:40.623Z,37.30
2022-11-15T12:51:53.094Z,32.28
2022-11-15T12:53:55.071Z,31.73
2022-11-15T12:56:16.236Z,35.88
2022-11-15T12:58:29.833Z,32.22
2022-11-15T13:00:34.966Z,23.48
2022-11-15T13:02:47.671Z,21.27
2022-11-15T13:04:51.538Z,20.80
2022-11-15T13:06:56.937Z,21.02
2022-11-15T13:08:59.382Z,18.20
2022-11-15T13:11:39.934Z,17.55
2022-11-15T13:13:46.396Z,22.50
2022-11-15T13:16:19.457Z,17.17
2022-11-15T13:18:37.339Z,17.63
2022-11-15T13:28:42.589Z,16.20
2022-11-15T13:30:47.584Z,17.70
2022-11-15T13:32:51.559Z,19.48
2022-11-15T13:34:53.971Z,20.58
2022-11-15T13:36:56.990Z,19.75
2022-11-15T13:39:26.218Z,20.38
2022-11-15T13:41:37.038Z,23.02
2022-11-15T13:43:39.248Z,22.05
2022-11-15T13:45:41.269Z,21.75
2022-11-15T13:47:44.724Z,24.55
2022-11-15T13:49:47.010Z,24.27
2022-11-15T13:51:52.450Z,25.05
2022-11-15T13:54:30.136Z,25.88
2022-11-15T13:56:35.223Z,27.77
2022-11-15T13:58:40.762Z,29.25
2022-11-15T14:00:46.230Z,34.25
2022-11-15T14:02:48.381Z,35.80
2022-11-15T14:05:00.705Z,36.38
2022-11-15T14:07:03.984Z,34.83
2022-11-15T14:09:12.207Z,33.35
2022-11-15T14:11:18.642Z,38.72
2022-11-15T14:13:34.851Z,37.83
2022-11-15T14:15:39.515Z,37.13
2022-11-15T14:17:49.735Z,32.67
2022-11-15T14:19:53.705Z,35.13
2022-11-15T14:22:26.791Z,30.15
2022-11-15T14:24:32.701Z,30.77
2022-11-15T14:26:35.969Z,35.15
2022-11-15T14:28:40.333Z,34.97
2022-11-15T14:30:43.846Z,39.90
2022-11-15T14:32:50.669Z,53.10
2022-11-15T14:35:01.293Z,47.92
2022-11-15T14:37:03.318Z,45.95
2022-11-15T14:39:06.424Z,62.88
2022-11-15T14:41:20.239Z,54.25
2022-11-15T14:43:22.438Z,62.20
2022-11-15T14:45:24.545Z,60.72
2022-11-15T14:47:26.641Z,58.80
2022-11-15T14:49:28.688Z,49.00
2022-11-15T14:51:31.217Z,41.03
2022-11-15T14:53:33.472Z,37.42
2022-11-15T14:55:37.352Z,30.80
2022-11-15T14:57:39.650Z,30.00
2022-11-15T14:59:41.806Z,27.88
2022-11-15T15:01:46.263Z,24.73
2022-11-15T15:03:48.429Z,24.63
2022-11-15T15:05:50.928Z,24.08
2022-11-15T15:07:54.317Z,23.45
2022-11-15T15:10:06.744Z,25.60
2022-11-15T15:12:20.889Z,22.50
2022-11-15T15:14:23.222Z,21.85
2022-11-15T15:16:25.945Z,31.42
2022-11-15T15:18:28.200Z,35.35
2022-11-15T15:20:31.193Z,36.67
2022-11-15T15:22:34.155Z,38.55
2022-11-15T15:24:36.072Z,42.15
2022-11-15T15:26:40.288Z,40.22
2022-11-15T15:28:42.573Z,45.03
2022-11-15T15:30:44.916Z,46.08
2022-11-15T15:32:47.064Z,46.90
2022-11-15T15:34:49.397Z,49.58
2022-11-15T15:37:50.971Z,43.35
2022-11-15T15:39:57.329Z,38.00
2022-11-15T15:41:59.567Z,38.70
2022-11-15T15:44:02.126Z,37.92
2022-11-15T15:46:04.613Z,42.95
2022-11-15T15:48:07.055Z,41.72
2022-11-15T15:50:21.183Z,43.95
2022-11-15T15:52:23.342Z,42.97
2022-11-15T15:54:25.364Z,41.97
2022-11-15T15:56:29.305Z,44.90
2022-11-15T15:58:35.657Z,42.35
2022-11-15T16:00:38.628Z,38.65
2022-11-15T16:02:41.262Z,33.78
2022-11-15T16:04:43.752Z,39.13
2022-11-15T16:06:46.037Z,33.83
2022-11-15T16:09:13.666Z,34.35
2022-11-15T16:11:11.367Z,32.35
2022-11-15T16:13:13.559Z,32.00
2022-11-15T16:15:16.211Z,33.83
2022-11-15T16:17:21.517Z,35.42
2022-11-15T16:19:23.785Z,87.10
2022-11-15T16:21:26.035Z,98.57
2022-11-15T16:23:27.923Z,107.47
2022-11-15T16:25:31.609Z,107.55
2022-11-15T16:27:33.804Z,109.95
2022-11-15T16:29:36.093Z,103.70
2022-11-15T16:31:38.659Z,99.85
2022-11-15T16:33:41.675Z,90.22
2022-11-15T16:35:43.801Z,83.45
2022-11-15T16:37:47.370Z,76.93
2022-11-15T16:39:50.737Z,73.28
2022-11-15T16:41:52.889Z,75.72
2022-11-15T16:43:54.881Z,65.05
2022-11-15T16:45:57.048Z,109.05
2022-11-15T16:51:23.951Z,115.80
2022-11-15T16:53:27.962Z,130.50
2022-11-15T16:55:30.684Z,129.63
2022-11-15T16:58:02.015Z,128.43
2022-11-15T17:00:04.775Z,132.82
2022-11-15T17:02:12.714Z,128.27
2022-11-15T17:04:16.491Z,128.30
2022-11-15T17:06:19.151Z,119.57
2022-11-15T17:08:22.641Z,123.40
2022-11-15T17:10:26.521Z,111.80
2022-11-15T17:12:28.935Z,112.38
2022-11-15T17:14:31.436Z,100.93
2022-11-15T17:16:38.369Z,108.20
2022-11-15T17:18:41.776Z,104.10
2022-11-15T17:20:44.661Z,110.15
2022-11-15T17:22:47.596Z,104.38
2022-11-15T17:24:49.975Z,113.35
2022-11-15T17:26:52.215Z,158.43
2022-11-15T17:28:57.841Z,190.05
2022-11-15T17:31:00.289Z,187.63
2022-11-15T17:33:02.215Z,152.18
2022-11-15T17:35:12.171Z,136.50
2022-11-15T17:37:17.459Z,143.30
2022-11-15T17:39:21.008Z,141.20
2022-11-15T17:41:23.427Z,130.00
2022-11-15T17:43:25.611Z,113.50
2022-11-15T17:45:27.751Z,115.72
2022-11-15T17:47:29.724Z,106.82
2022-11-15T17:49:31.920Z,85.25
2022-11-15T17:51:34.046Z,75.35
2022-11-15T17:53:38.685Z,66.93
2022-11-15T17:55:43.026Z,67.90
2022-11-15T17:57:45.125Z,60.28
2022-11-15T17:59:48.800Z,56.22
2022-11-15T18:01:50.919Z,53.42
2022-11-15T18:03:53.889Z,51.55
2022-11-15T18:05:56.046Z,86.55
2022-11-15T18:07:58.268Z,96.10
2022-11-15T18:10:00.492Z,87.10
2022-11-15T18:12:02.578Z,76.57
2022-11-15T18:14:06.690Z,70.40
2022-11-15T18:16:15.696Z,65.95
2022-11-15T18:18:20.298Z,84.60
2022-11-15T18:20:26.551Z,92.75
2022-11-15T18:22:30.840Z,88.35
2022-11-15T18:24:41.637Z,86.05
2022-11-15T18:26:43.809Z,73.95
2022-11-15T18:28:49.006Z,65.45
2022-11-15T18:30:52.758Z,88.18
2022-11-15T18:32:55.520Z,115.55
2022-11-15T18:34:57.625Z,109.00
2022-11-15T18:37:01.650Z,92.72
2022-11-15T18:39:05.044Z,95.05
2022-11-15T18:41:09.776Z,73.68
2022-11-15T18:43:36.978Z,73.03
2022-11-15T18:45:39.090Z,64.70
2022-11-15T18:47:44.201Z,62.15
2022-11-15T18:49:48.531Z,67.05
2022-11-15T18:51:50.873Z,70.97
2022-11-15T18:53:54.801Z,62.47
2022-11-15T18:56:05.178Z,69.10
2022-11-15T18:58:07.097Z,64.00
2022-11-15T19:00:09.917Z,68.90
2022-11-15T19:02:13.110Z,66.57
2022-11-15T19:04:19.089Z,64.47
2022-11-15T19:06:23.933Z,66.88
2022-11-15T19:08:26.301Z,63.25
2022-11-15T19:10:28.297Z,61.53
2022-11-15T19:12:30.276Z,63.25
2022-11-15T19:14:32.915Z,65.80
2022-11-15T19:16:38.094Z,84.05
2022-11-15T19:18:40.220Z,80.93
2022-11-15T19:20:42.596Z,81.47
2022-11-15T19:22:44.671Z,78.10
2022-11-15T19:24:46.655Z,71.80
2022-11-15T19:26:48.987Z,66.38
2022-11-15T19:28:58.404Z,73.18
2022-11-15T19:31:11.521Z,73.07
2022-11-15T19:33:13.709Z,75.90
2022-11-15T19:35:15.931Z,74.32
2022-11-15T19:37:17.879Z,72.55
2022-11-15T19:39:20.054Z,81.72
2022-11-15T19:41:24.150Z,78.60
2022-11-15T19:43:26.703Z,84.72
2022-11-15T19:45:28.551Z,84.28
2022-11-15T19:47:33.621Z,77.32
2022-11-15T19:49:38.418Z,75.05
2022-11-15T19:51:42.653Z,72.47
2022-11-15T19:53:45.446Z,68.97
2022-11-15T19:56:00.307Z,66.82
2022-11-15T19:58:02.762Z,61.08
2022-11-15T20:00:07.600Z,57.40
2022-11-15T20:02:12.518Z,60.90
2022-11-15T20:04:14.662Z,65.28
2022-11-15T20:06:22.005Z,60.20
2022-11-15T20:08:24.225Z,63.42
2022-11-15T20:10:26.228Z,66.32
2022-11-15T20:12:28.190Z,85.78
2022-11-15T20:14:30.522Z,97.50
2022-11-15T20:16:33.719Z,105.05
2022-11-15T20:18:36.118Z,94.72
2022-11-15T20:20:38.698Z,82.15
2022-11-15T20:22:40.904Z,86.25
2022-11-15T20:24:42.987Z,86.00
2022-11-15T20:26:45.194Z,87.22
2022-11-15T20:28:48.241Z,95.55
2022-11-15T20:30:53.709Z,90.90
2022-11-15T20:32:55.722Z,140.77
2022-11-15T20:34:57.599Z,138.30
2022-11-15T20:36:59.798Z,131.00
2022-11-15T20:39:01.920Z,149.50
2022-11-15T20:41:04.101Z,141.75
2022-11-15T20:43:07.236Z,122.40
2022-11-15T20:45:09.519Z,126.07
2022-11-15T20:47:11.639Z,128.48
2022-11-15T20:49:13.407Z,112.28
2022-11-15T20:51:17.112Z,145.88
2022-11-15T20:53:20.464Z,169.10
2022-11-15T20:55:22.896Z,191.43
2022-11-15T20:57:25.018Z,185.68
2022-11-15T20:59:27.296Z,174.65
2022-11-15T21:01:29.711Z,167.77
2022-11-15T21:03:33.290Z,163.88
2022-11-15T21:05:38.958Z,150.25
2022-11-15T21:07:46.611Z,133.38
2022-11-15T21:10:07.601Z,117.10
2022-11-15T21:12:14.064Z,116.65
2022-11-15T21:14:16.157Z,113.78
2022-11-15T21:16:18.031Z,108.55
2022-11-15T21:18:19.958Z,101.97
2022-11-15T21:20:21.817Z,92.97
2022-11-15T21:22:24.056Z,95.00
2022-11-15T21:24:26.336Z,99.25
2022-11-15T21:26:28.754Z,108.85
2022-11-15T21:28:31.305Z,122.22
2022-11-15T21:30:33.976Z,133.63
2022-11-15T21:32:39.345Z,123.88
2022-11-15T21:34:41.735Z,115.40
2022-11-15T21:36:46.110Z,107.00
2022-11-15T21:38:50.480Z,99.53
2022-11-15T21:40:53.633Z,99.43
2022-11-15T21:42:55.636Z,88.95
2022-11-15T21:44:57.766Z,96.95
2022-11-15T21:47:00.502Z,93.32
2022-11-15T21:49:02.877Z,82.07
2022-11-15T21:51:07.510Z,76.35
2022-11-15T21:53:09.533Z,73.85
2022-11-15T21:55:11.656Z,70.30
2022-11-15T21:57:13.783Z,74.07
2022-11-15T21:59:15.633Z,86.97
2022-11-15T22:01:36.155Z,98.53
2022-11-15T22:03:38.127Z,95.20
2022-11-15T22:05:43.995Z,94.03
2022-11-15T22:07:45.971Z,97.28
2022-11-15T22:09:48.022Z,85.07
2022-11-15T22:11:50.146Z,85.78
2022-11-15T22:13:52.204Z,82.70
2022-11-15T22:15:55.144Z,90.03
2022-11-15T22:18:00.121Z,105.57
2022-11-15T22:20:16.886Z,81.22
2022-11-15T22:22:24.717Z,69.57
2022-11-15T22:24:27.514Z,73.47
2022-11-15T22:26:29.620Z,73.20
2022-11-15T22:28:32.541Z,83.00
2022-11-15T22:30:39.592Z,82.30
2022-11-15T22:36:08.027Z,75.50
2022-11-15T22:38:11.191Z,85.35
2022-11-15T22:40:13.586Z,86.20
2022-11-15T22:42:20.721Z,79.15
2022-11-15T22:44:25.428Z,74.63
2022-11-15T22:46:27.971Z,65.53
2022-11-15T22:48:36.442Z,64.38
2022-11-15T22:50:39.225Z,65.47
2022-11-15T22:52:41.490Z,66.05
2022-11-15T22:54:46.586Z,64.95
2022-11-15T22:56:51.053Z,66.28
2022-11-15T22:58:53.152Z,70.38
2022-11-15T23:00:58.297Z,68.90
2022-11-15T23:03:00.957Z,62.30
2022-11-15T23:05:03.580Z,56.70
2022-11-15T23:07:05.824Z,59.63
2022-11-15T23:09:08.385Z,73.05
2022-11-15T23:11:30.272Z,71.93
2022-11-15T23:13:33.570Z,64.63
2022-11-15T23:15:54.441Z,65.78
2022-11-15T23:17:56.789Z,64.05
2022-11-15T23:20:11.157Z,76.13
2022-11-15T23:22:39.725Z,89.47
2022-11-15T23:24:41.913Z,94.28
2022-11-15T23:26:46.073Z,96.78
2022-11-15T23:28:48.264Z,70.88
2022-11-15T23:31:09.122Z,71.22
2022-11-15T23:34:01.982Z,84.70
2022-11-15T23:36:05.402Z,96.68
2022-11-15T23:38:07.921Z,110.38
2022-11-15T23:40:10.911Z,96.80
2022-11-15T23:42:20.278Z,81.47
2022-11-15T23:44:23.193Z,85.55
2022-11-15T23:46:25.212Z,77.57
2022-11-15T23:48:28.089Z,81.70
2022-11-15T23:50:32.926Z,63.35
2022-11-15T23:52:35.216Z,64.95
2022-11-15T23:54:38.406Z,63.67
2022-11-15T23:56:40.685Z,63.03
2022-11-15T23:58:44.400Z,58.10
